Time;durP1;ratioP1;P1;durP2;ratioP2;P2;SDS_P1;SDS_P2;PMS_P1;PMS_P2;Temp;Humidity;BMP_temperature;BMP_pressure;BME280_temperature;BME280_humidity;BME280_pressure;Samples;Min_cycle;Max_cycle;Signal;HPM_P1;HPM_P2
2022/03/28 00:00:00;;;;;;;18.1;11.2;;;;;;;10.3;100.0;102450;;;;
2022/03/28 00:01:00;;;;;;;18.1;11.2;;;;;;;10.2;100.0;102450;;;;
2022/03/28 00:02:00;;;;;;;18.1;11.2;;;;;;;10.2;100.0;102450;;;;
2022/03/28 00:03:01;;;;;;;18.1;11.2;;;;;;;10.2;100.0;102450;;;;
2022/03/28 00:04:00;;;;;;;17.0;10.1;;;;;;;10.2;100.0;102450;;;;
2022/03/28 00:05:00;;;;;;;17.0;10.1;;;;;;;10.3;100.0;102460;;;;
2022/03/28 00:06:00;;;;;;;17.0;10.1;;;;;;;10.3;100.0;102460;;;;
2022/03/28 00:07:00;;;;;;;17.0;10.1;;;;;;;10.2;100.0;102450;;;;
2022/03/28 00:08:00;;;;;;;17.0;10.1;;;;;;;10.2;100.0;102450;;;;
2022/03/28 00:09:00;;;;;;;17.0;10.1;;;;;;;10.0;100.0;102460;;;;
2022/03/28 00:10:00;;;;;;;17.0;10.1;;;;;;;10.0;100.0;102460;;;;
2022/03/28 00:11:00;;;;;;;17.0;10.1;;;;;;;10.0;100.0;102450;;;;
2022/03/28 00:12:00;;;;;;;17.0;10.1;;;;;;;10.0;100.0;102450;;;;
2022/03/28 00:13:00;;;;;;;17.0;10.1;;;;;;;10.0;100.0;102450;;;;
2022/03/28 00:14:00;;;;;;;17.0;10.1;;;;;;;10.0;100.0;102450;;;;
2022/03/28 00:15:01;;;;;;;17.0;10.1;;;;;;;10.0;100.0;102450;;;;
2022/03/28 00:16:00;;;;;;;17.0;10.1;;;;;;;10.0;100.0;102450;;;;
2022/03/28 00:17:00;;;;;;;17.0;10.1;;;;;;;10.0;100.0;102440;;;;
2022/03/28 00:18:00;;;;;;;17.0;10.1;;;;;;;10.0;100.0;102440;;;;
2022/03/28 00:19:00;;;;;;;17.0;10.1;;;;;;;9.9;100.0;102440;;;;
2022/03/28 00:20:00;;;;;;;17.0;10.1;;;;;;;9.9;100.0;102440;;;;
2022/03/28 00:21:00;;;;;;;17.0;10.1;;;;;;;9.9;100.0;102430;;;;
2022/03/28 00:22:00;;;;;;;17.0;10.1;;;;;;;9.9;100.0;102430;;;;
2022/03/28 00:23:00;;;;;;;17.0;10.1;;;;;;;9.8;100.0;102430;;;;
2022/03/28 00:24:00;;;;;;;18.3;9.9;;;;;;;9.8;100.0;102430;;;;
2022/03/28 00:25:00;;;;;;;18.3;9.9;;;;;;;9.9;100.0;102430;;;;
2022/03/28 00:26:00;;;;;;;18.3;9.9;;;;;;;9.9;100.0;102430;;;;
2022/03/28 00:27:00;;;;;;;18.3;9.9;;;;;;;9.9;100.0;102420;;;;
2022/03/28 00:28:00;;;;;;;18.3;9.9;;;;;;;9.9;100.0;102420;;;;
2022/03/28 00:29:00;;;;;;;18.3;9.9;;;;;;;9.9;100.0;102420;;;;
2022/03/28 00:30:00;;;;;;;18.3;9.9;;;;;;;9.9;100.0;102420;;;;
2022/03/28 00:31:00;;;;;;;18.3;9.9;;;;;;;9.9;100.0;102420;;;;
2022/03/28 00:32:00;;;;;;;18.3;9.9;;;;;;;9.9;100.0;102420;;;;
2022/03/28 00:33:00;;;;;;;18.3;9.9;;;;;;;9.9;100.0;102410;;;;
2022/03/28 00:34:00;;;;;;;18.3;9.9;;;;;;;9.9;100.0;102410;;;;
2022/03/28 00:35:00;;;;;;;18.3;9.9;;;;;;;9.8;100.0;102410;;;;
2022/03/28 00:36:00;;;;;;;18.3;9.9;;;;;;;9.8;100.0;102410;;;;
2022/03/28 00:37:00;;;;;;;18.3;9.9;;;;;;;9.8;100.0;102410;;;;
2022/03/28 00:38:00;;;;;;;18.3;9.9;;;;;;;9.8;100.0;102410;;;;
2022/03/28 00:39:00;;;;;;;18.3;9.9;;;;;;;9.8;100.0;102410;;;;
2022/03/28 00:40:00;;;;;;;18.3;9.9;;;;;;;9.8;100.0;102410;;;;
2022/03/28 00:41:00;;;;;;;18.3;9.9;;;;;;;9.5;100.0;102410;;;;
2022/03/28 00:42:00;;;;;;;18.3;9.9;;;;;;;9.5;100.0;102410;;;;
2022/03/28 00:43:03;;;;;;;18.3;9.9;;;;;;;9.4;100.0;102400;;;;
2022/03/28 00:44:00;;;;;;;18.9;10.1;;;;;;;9.4;100.0;102400;;;;
2022/03/28 00:45:00;;;;;;;18.9;10.1;;;;;;;9.6;100.0;102400;;;;
2022/03/28 00:46:00;;;;;;;18.9;10.1;;;;;;;9.6;100.0;102400;;;;
2022/03/28 00:47:00;;;;;;;18.9;10.1;;;;;;;9.5;100.0;102400;;;;
2022/03/28 00:48:00;;;;;;;18.9;10.1;;;;;;;9.5;100.0;102400;;;;
2022/03/28 00:49:00;;;;;;;18.9;10.1;;;;;;;9.3;100.0;102390;;;;
2022/03/28 00:50:00;;;;;;;18.9;10.1;;;;;;;9.3;100.0;102390;;;;
2022/03/28 00:51:01;;;;;;;18.9;10.1;;;;;;;9.2;100.0;102390;;;;
2022/03/28 00:52:00;;;;;;;18.9;10.1;;;;;;;9.2;100.0;102390;;;;
2022/03/28 00:53:00;;;;;;;18.9;10.1;;;;;;;9.2;100.0;102390;;;;
2022/03/28 00:54:00;;;;;;;18.9;10.1;;;;;;;9.2;100.0;102390;;;;
2022/03/28 00:55:00;;;;;;;18.9;10.1;;;;;;;9.1;100.0;102390;;;;
2022/03/28 00:56:00;;;;;;;18.9;10.1;;;;;;;9.1;100.0;102390;;;;
2022/03/28 00:57:00;;;;;;;18.9;10.1;;;;;;;9.1;100.0;102380;;;;
2022/03/28 00:58:00;;;;;;;18.9;10.1;;;;;;;9.1;100.0;102380;;;;
2022/03/28 00:59:00;;;;;;;18.9;10.1;;;;;;;8.9;100.0;102380;;;;
2022/03/28 01:00:00;;;;;;;18.9;10.1;;;;;;;8.9;100.0;102380;;;;
2022/03/28 01:01:01;;;;;;;18.9;10.1;;;;;;;8.9;100.0;102380;;;;
2022/03/28 01:02:02;;;;;;;18.9;10.1;;;;;;;8.9;100.0;102380;;;;
2022/03/28 01:03:00;;;;;;;18.9;10.1;;;;;;;8.9;100.0;102380;;;;
2022/03/28 01:04:00;;;;;;;20.5;10.6;;;;;;;8.9;100.0;102380;;;;
2022/03/28 01:05:00;;;;;;;20.5;10.6;;;;;;;8.9;100.0;102380;;;;
2022/03/28 01:06:00;;;;;;;20.5;10.6;;;;;;;8.9;100.0;102380;;;;
2022/03/28 01:07:00;;;;;;;20.5;10.6;;;;;;;8.9;100.0;102370;;;;
2022/03/28 01:08:00;;;;;;;20.5;10.6;;;;;;;8.9;100.0;102370;;;;
2022/03/28 01:09:00;;;;;;;20.5;10.6;;;;;;;8.8;100.0;102370;;;;
2022/03/28 01:10:01;;;;;;;20.5;10.6;;;;;;;8.8;100.0;102370;;;;
2022/03/28 01:11:02;;;;;;;20.5;10.6;;;;;;;8.9;100.0;102370;;;;
2022/03/28 01:12:01;;;;;;;20.5;10.6;;;;;;;8.9;100.0;102370;;;;
2022/03/28 01:13:00;;;;;;;20.5;10.6;;;;;;;8.9;100.0;102370;;;;
2022/03/28 01:14:00;;;;;;;20.5;10.6;;;;;;;8.9;100.0;102370;;;;
2022/03/28 01:15:00;;;;;;;20.5;10.6;;;;;;;8.8;100.0;102370;;;;
2022/03/28 01:16:00;;;;;;;20.5;10.6;;;;;;;8.8;100.0;102370;;;;
2022/03/28 01:18:08;;;;;;;20.5;10.6;;;;;;;8.8;100.0;102360;;;;
2022/03/28 01:19:01;;;;;;;20.5;10.6;;;;;;;8.8;100.0;102360;;;;
2022/03/28 01:20:00;;;;;;;20.5;10.6;;;;;;;8.8;100.0;102360;;;;
2022/03/28 01:21:00;;;;;;;20.5;10.6;;;;;;;8.6;100.0;102360;;;;
2022/03/28 01:22:00;;;;;;;20.5;10.6;;;;;;;8.6;100.0;102360;;;;
2022/03/28 01:23:00;;;;;;;19.9;10.6;;;;;;;8.6;100.0;102360;;;;
2022/03/28 01:24:00;;;;;;;19.9;10.6;;;;;;;8.6;100.0;102360;;;;
2022/03/28 01:25:01;;;;;;;19.9;10.6;;;;;;;8.7;100.0;102360;;;;
2022/03/28 01:26:00;;;;;;;19.9;10.6;;;;;;;8.7;100.0;102360;;;;
2022/03/28 01:27:01;;;;;;;19.9;10.6;;;;;;;8.8;100.0;102360;;;;
2022/03/28 01:28:00;;;;;;;19.9;10.6;;;;;;;8.8;100.0;102360;;;;
2022/03/28 01:29:00;;;;;;;19.9;10.6;;;;;;;8.8;100.0;102360;;;;
2022/03/28 01:30:00;;;;;;;19.9;10.6;;;;;;;8.8;100.0;102360;;;;
2022/03/28 01:31:00;;;;;;;19.9;10.6;;;;;;;8.7;100.0;102360;;;;
2022/03/28 01:32:00;;;;;;;19.9;10.6;;;;;;;8.7;100.0;102360;;;;
2022/03/28 01:33:00;;;;;;;19.9;10.6;;;;;;;8.7;100.0;102360;;;;
2022/03/28 01:34:01;;;;;;;19.9;10.6;;;;;;;8.7;100.0;102360;;;;
2022/03/28 01:35:00;;;;;;;19.9;10.6;;;;;;;8.7;100.0;102350;;;;
2022/03/28 01:36:00;;;;;;;19.9;10.6;;;;;;;8.7;100.0;102350;;;;
2022/03/28 01:37:00;;;;;;;19.9;10.6;;;;;;;8.7;100.0;102350;;;;
2022/03/28 01:38:01;;;;;;;19.9;10.6;;;;;;;8.7;100.0;102350;;;;
2022/03/28 01:39:00;;;;;;;19.9;10.6;;;;;;;8.7;100.0;102340;;;;
2022/03/28 01:40:01;;;;;;;19.9;10.6;;;;;;;8.7;100.0;102340;;;;
2022/03/28 01:41:00;;;;;;;19.9;10.6;;;;;;;8.8;100.0;102340;;;;
2022/03/28 01:42:00;;;;;;;19.9;10.6;;;;;;;8.8;100.0;102340;;;;
2022/03/28 01:43:00;;;;;;;19.4;10.3;;;;;;;8.6;100.0;102340;;;;
2022/03/28 01:44:00;;;;;;;19.4;10.3;;;;;;;8.6;100.0;102340;;;;
2022/03/28 01:45:00;;;;;;;19.4;10.3;;;;;;;8.6;100.0;102340;;;;
2022/03/28 01:46:00;;;;;;;19.4;10.3;;;;;;;8.6;100.0;102340;;;;
2022/03/28 01:47:00;;;;;;;19.4;10.3;;;;;;;8.7;100.0;102340;;;;
2022/03/28 01:48:00;;;;;;;19.4;10.3;;;;;;;8.7;100.0;102340;;;;
2022/03/28 01:49:00;;;;;;;19.4;10.3;;;;;;;8.6;100.0;102340;;;;
2022/03/28 01:50:00;;;;;;;19.4;10.3;;;;;;;8.6;100.0;102340;;;;
2022/03/28 01:51:00;;;;;;;19.4;10.3;;;;;;;8.6;100.0;102340;;;;
2022/03/28 01:52:00;;;;;;;19.4;10.3;;;;;;;8.6;100.0;102340;;;;
2022/03/28 01:53:00;;;;;;;19.4;10.3;;;;;;;8.5;100.0;102340;;;;
2022/03/28 01:54:00;;;;;;;19.4;10.3;;;;;;;8.5;100.0;102340;;;;
2022/03/28 01:55:00;;;;;;;19.4;10.3;;;;;;;8.5;100.0;102330;;;;
2022/03/28 01:56:00;;;;;;;19.4;10.3;;;;;;;8.5;100.0;102330;;;;
2022/03/28 01:57:00;;;;;;;19.4;10.3;;;;;;;8.5;100.0;102330;;;;
2022/03/28 01:58:00;;;;;;;19.4;10.3;;;;;;;8.5;100.0;102330;;;;
2022/03/28 01:59:00;;;;;;;19.4;10.3;;;;;;;8.5;100.0;102330;;;;
2022/03/28 02:00:00;;;;;;;19.4;10.3;;;;;;;8.5;100.0;102330;;;;
2022/03/28 02:01:00;;;;;;;19.4;10.3;;;;;;;8.5;100.0;102330;;;;
2022/03/28 02:02:00;;;;;;;19.4;10.3;;;;;;;8.5;100.0;102330;;;;
2022/03/28 02:03:00;;;;;;;20.3;10.9;;;;;;;8.4;100.0;102330;;;;
2022/03/28 02:04:00;;;;;;;20.3;10.9;;;;;;;8.4;100.0;102330;;;;
2022/03/28 02:05:00;;;;;;;20.3;10.9;;;;;;;8.4;100.0;102320;;;;
2022/03/28 02:06:00;;;;;;;20.3;10.9;;;;;;;8.4;100.0;102320;;;;
2022/03/28 02:07:00;;;;;;;20.3;10.9;;;;;;;8.4;100.0;102320;;;;
2022/03/28 02:08:00;;;;;;;20.3;10.9;;;;;;;8.4;100.0;102320;;;;
2022/03/28 02:09:00;;;;;;;20.3;10.9;;;;;;;8.3;100.0;102320;;;;
2022/03/28 02:10:00;;;;;;;20.3;10.9;;;;;;;8.3;100.0;102320;;;;
2022/03/28 02:11:00;;;;;;;20.3;10.9;;;;;;;8.3;100.0;102320;;;;
2022/03/28 02:12:00;;;;;;;20.3;10.9;;;;;;;8.3;100.0;102320;;;;
2022/03/28 02:13:00;;;;;;;20.3;10.9;;;;;;;8.2;100.0;102320;;;;
2022/03/28 02:14:00;;;;;;;20.3;10.9;;;;;;;8.2;100.0;102320;;;;
2022/03/28 02:15:00;;;;;;;20.3;10.9;;;;;;;8.4;100.0;102320;;;;
2022/03/28 02:16:00;;;;;;;20.3;10.9;;;;;;;8.4;100.0;102320;;;;
2022/03/28 02:17:00;;;;;;;20.3;10.9;;;;;;;8.4;100.0;102310;;;;
2022/03/28 02:18:00;;;;;;;20.3;10.9;;;;;;;8.4;100.0;102310;;;;
2022/03/28 02:19:00;;;;;;;20.3;10.9;;;;;;;8.4;100.0;102310;;;;
2022/03/28 02:20:00;;;;;;;20.3;10.9;;;;;;;8.4;100.0;102310;;;;
2022/03/28 02:21:00;;;;;;;20.3;10.9;;;;;;;8.3;100.0;102310;;;;
2022/03/28 02:22:00;;;;;;;20.3;10.9;;;;;;;8.3;100.0;102310;;;;
2022/03/28 02:23:00;;;;;;;19.1;10.2;;;;;;;8.2;100.0;102310;;;;
2022/03/28 02:24:00;;;;;;;19.1;10.2;;;;;;;8.2;100.0;102310;;;;
2022/03/28 02:25:00;;;;;;;19.1;10.2;;;;;;;8.2;100.0;102310;;;;
2022/03/28 02:26:00;;;;;;;19.1;10.2;;;;;;;8.2;100.0;102310;;;;
2022/03/28 02:27:00;;;;;;;19.1;10.2;;;;;;;8.2;100.0;102310;;;;
2022/03/28 02:28:00;;;;;;;19.1;10.2;;;;;;;8.2;100.0;102310;;;;
2022/03/28 02:29:00;;;;;;;19.1;10.2;;;;;;;8.3;100.0;102310;;;;
2022/03/28 02:30:00;;;;;;;19.1;10.2;;;;;;;8.3;100.0;102310;;;;
2022/03/28 02:31:00;;;;;;;19.1;10.2;;;;;;;8.3;100.0;102310;;;;
2022/03/28 02:32:00;;;;;;;19.1;10.2;;;;;;;8.3;100.0;102310;;;;
2022/03/28 02:33:00;;;;;;;19.1;10.2;;;;;;;8.2;100.0;102300;;;;
2022/03/28 02:34:00;;;;;;;19.1;10.2;;;;;;;8.2;100.0;102300;;;;
2022/03/28 02:35:00;;;;;;;19.1;10.2;;;;;;;8.2;100.0;102300;;;;
2022/03/28 02:36:00;;;;;;;19.1;10.2;;;;;;;8.2;100.0;102300;;;;
2022/03/28 02:37:00;;;;;;;19.1;10.2;;;;;;;8.2;100.0;102300;;;;
2022/03/28 02:38:01;;;;;;;19.1;10.2;;;;;;;8.2;100.0;102300;;;;
2022/03/28 02:39:00;;;;;;;19.1;10.2;;;;;;;8.2;100.0;102300;;;;
2022/03/28 02:40:00;;;;;;;19.1;10.2;;;;;;;8.2;100.0;102300;;;;
2022/03/28 02:41:00;;;;;;;19.1;10.2;;;;;;;8.1;100.0;102300;;;;
2022/03/28 02:42:00;;;;;;;19.1;10.2;;;;;;;8.1;100.0;102300;;;;
2022/03/28 02:43:00;;;;;;;20.8;10.7;;;;;;;8.1;100.0;102300;;;;
2022/03/28 02:44:00;;;;;;;20.8;10.7;;;;;;;8.1;100.0;102300;;;;
2022/03/28 02:45:00;;;;;;;20.8;10.7;;;;;;;8.3;100.0;102290;;;;
2022/03/28 02:46:00;;;;;;;20.8;10.7;;;;;;;8.3;100.0;102290;;;;
2022/03/28 02:47:00;;;;;;;20.8;10.7;;;;;;;8.2;100.0;102290;;;;
2022/03/28 02:48:00;;;;;;;20.8;10.7;;;;;;;8.2;100.0;102290;;;;
2022/03/28 02:49:00;;;;;;;20.8;10.7;;;;;;;8.1;100.0;102290;;;;
2022/03/28 02:50:00;;;;;;;20.8;10.7;;;;;;;8.1;100.0;102290;;;;
2022/03/28 02:51:00;;;;;;;20.8;10.7;;;;;;;8.2;100.0;102280;;;;
2022/03/28 02:52:00;;;;;;;20.8;10.7;;;;;;;8.2;100.0;102280;;;;
2022/03/28 02:53:00;;;;;;;20.8;10.7;;;;;;;8.2;100.0;102280;;;;
2022/03/28 02:54:00;;;;;;;20.8;10.7;;;;;;;8.2;100.0;102280;;;;
2022/03/28 02:55:00;;;;;;;20.8;10.7;;;;;;;8.3;100.0;102280;;;;
2022/03/28 02:56:00;;;;;;;20.8;10.7;;;;;;;8.3;100.0;102280;;;;
2022/03/28 02:57:00;;;;;;;20.8;10.7;;;;;;;8.2;100.0;102280;;;;
2022/03/28 02:58:00;;;;;;;20.8;10.7;;;;;;;8.2;100.0;102280;;;;
2022/03/28 02:59:00;;;;;;;20.8;10.7;;;;;;;8.1;100.0;102280;;;;
2022/03/28 03:00:00;;;;;;;20.8;10.7;;;;;;;8.1;100.0;102280;;;;
2022/03/28 03:01:00;;;;;;;20.8;10.7;;;;;;;8.2;100.0;102280;;;;
2022/03/28 03:02:02;;;;;;;20.8;10.7;;;;;;;8.2;100.0;102280;;;;
2022/03/28 03:03:00;;;;;;;21.1;10.1;;;;;;;8.3;100.0;102280;;;;
2022/03/28 03:04:00;;;;;;;21.1;10.1;;;;;;;8.3;100.0;102280;;;;
2022/03/28 03:05:00;;;;;;;21.1;10.1;;;;;;;8.3;100.0;102280;;;;
2022/03/28 03:06:00;;;;;;;21.1;10.1;;;;;;;8.3;100.0;102280;;;;
2022/03/28 03:07:00;;;;;;;21.1;10.1;;;;;;;8.1;100.0;102280;;;;
2022/03/28 03:08:00;;;;;;;21.1;10.1;;;;;;;8.1;100.0;102280;;;;
2022/03/28 03:09:00;;;;;;;21.1;10.1;;;;;;;8.1;100.0;102280;;;;
2022/03/28 03:10:00;;;;;;;21.1;10.1;;;;;;;8.1;100.0;102280;;;;
2022/03/28 03:11:00;;;;;;;21.1;10.1;;;;;;;7.9;100.0;102280;;;;
2022/03/28 03:12:00;;;;;;;21.1;10.1;;;;;;;7.9;100.0;102280;;;;
2022/03/28 03:13:00;;;;;;;21.1;10.1;;;;;;;8.0;100.0;102270;;;;
2022/03/28 03:14:00;;;;;;;21.1;10.1;;;;;;;8.0;100.0;102270;;;;
2022/03/28 03:15:00;;;;;;;21.1;10.1;;;;;;;8.0;100.0;102270;;;;
2022/03/28 03:16:01;;;;;;;21.1;10.1;;;;;;;8.0;100.0;102270;;;;
2022/03/28 03:17:00;;;;;;;21.1;10.1;;;;;;;8.0;100.0;102270;;;;
2022/03/28 03:18:00;;;;;;;21.1;10.1;;;;;;;8.0;100.0;102270;;;;
2022/03/28 03:19:00;;;;;;;21.1;10.1;;;;;;;7.9;100.0;102260;;;;
2022/03/28 03:20:00;;;;;;;21.1;10.1;;;;;;;7.9;100.0;102260;;;;
2022/03/28 03:21:00;;;;;;;21.1;10.1;;;;;;;8.0;100.0;102260;;;;
2022/03/28 03:22:00;;;;;;;21.1;10.1;;;;;;;8.0;100.0;102260;;;;
2022/03/28 03:23:00;;;;;;;24.3;10.5;;;;;;;7.8;100.0;102260;;;;
2022/03/28 03:24:00;;;;;;;24.3;10.5;;;;;;;7.8;100.0;102260;;;;
2022/03/28 03:25:00;;;;;;;24.3;10.5;;;;;;;7.9;100.0;102260;;;;
2022/03/28 03:26:00;;;;;;;24.3;10.5;;;;;;;7.9;100.0;102260;;;;
2022/03/28 03:27:00;;;;;;;24.3;10.5;;;;;;;7.8;100.0;102260;;;;
2022/03/28 03:28:00;;;;;;;24.3;10.5;;;;;;;7.8;100.0;102260;;;;
2022/03/28 03:29:00;;;;;;;24.3;10.5;;;;;;;7.7;100.0;102260;;;;
2022/03/28 03:30:00;;;;;;;24.3;10.5;;;;;;;7.7;100.0;102260;;;;
2022/03/28 03:31:00;;;;;;;24.3;10.5;;;;;;;7.7;100.0;102250;;;;
2022/03/28 03:32:00;;;;;;;24.3;10.5;;;;;;;7.7;100.0;102250;;;;
2022/03/28 03:33:00;;;;;;;24.3;10.5;;;;;;;7.6;100.0;102250;;;;
2022/03/28 03:34:00;;;;;;;24.3;10.5;;;;;;;7.6;100.0;102250;;;;
2022/03/28 03:35:00;;;;;;;24.3;10.5;;;;;;;7.7;100.0;102250;;;;
2022/03/28 03:36:01;;;;;;;24.3;10.5;;;;;;;7.7;100.0;102250;;;;
2022/03/28 03:37:01;;;;;;;24.3;10.5;;;;;;;7.7;100.0;102260;;;;
2022/03/28 03:38:00;;;;;;;24.3;10.5;;;;;;;7.7;100.0;102260;;;;
2022/03/28 03:39:00;;;;;;;24.3;10.5;;;;;;;7.5;100.0;102260;;;;
2022/03/28 03:40:00;;;;;;;24.3;10.5;;;;;;;7.5;100.0;102260;;;;
2022/03/28 03:41:00;;;;;;;24.3;10.5;;;;;;;7.5;100.0;102250;;;;
2022/03/28 03:42:00;;;;;;;24.3;10.5;;;;;;;7.5;100.0;102250;;;;
2022/03/28 03:43:00;;;;;;;20.5;9.5;;;;;;;7.6;100.0;102250;;;;
2022/03/28 03:44:00;;;;;;;20.5;9.5;;;;;;;7.6;100.0;102250;;;;
2022/03/28 03:45:00;;;;;;;20.5;9.5;;;;;;;7.6;100.0;102250;;;;
2022/03/28 03:46:00;;;;;;;20.5;9.5;;;;;;;7.6;100.0;102250;;;;
2022/03/28 03:47:00;;;;;;;20.5;9.5;;;;;;;7.5;100.0;102250;;;;
2022/03/28 03:48:00;;;;;;;20.5;9.5;;;;;;;7.5;100.0;102250;;;;
2022/03/28 03:49:00;;;;;;;20.5;9.5;;;;;;;7.3;100.0;102250;;;;
2022/03/28 03:50:00;;;;;;;20.5;9.5;;;;;;;7.3;100.0;102250;;;;
2022/03/28 03:51:00;;;;;;;20.5;9.5;;;;;;;7.4;100.0;102250;;;;
2022/03/28 03:52:00;;;;;;;20.5;9.5;;;;;;;7.4;100.0;102250;;;;
2022/03/28 03:53:00;;;;;;;20.5;9.5;;;;;;;7.5;100.0;102240;;;;
2022/03/28 03:54:00;;;;;;;20.5;9.5;;;;;;;7.5;100.0;102240;;;;
2022/03/28 03:55:00;;;;;;;20.5;9.5;;;;;;;7.4;100.0;102240;;;;
2022/03/28 03:56:00;;;;;;;20.5;9.5;;;;;;;7.4;100.0;102240;;;;
2022/03/28 03:57:00;;;;;;;20.5;9.5;;;;;;;7.4;100.0;102240;;;;
2022/03/28 03:58:00;;;;;;;20.5;9.5;;;;;;;7.4;100.0;102240;;;;
2022/03/28 03:59:00;;;;;;;20.5;9.5;;;;;;;7.4;100.0;102230;;;;
2022/03/28 04:00:03;;;;;;;20.5;9.5;;;;;;;7.4;100.0;102230;;;;
2022/03/28 04:01:00;;;;;;;20.5;9.5;;;;;;;7.3;100.0;102230;;;;
2022/03/28 04:02:00;;;;;;;20.5;9.5;;;;;;;7.3;100.0;102230;;;;
2022/03/28 04:03:00;;;;;;;24.3;10.1;;;;;;;7.4;100.0;102230;;;;
2022/03/28 04:04:00;;;;;;;24.3;10.1;;;;;;;7.4;100.0;102230;;;;
2022/03/28 04:05:00;;;;;;;24.3;10.1;;;;;;;7.3;100.0;102240;;;;
2022/03/28 04:06:00;;;;;;;24.3;10.1;;;;;;;7.3;100.0;102240;;;;
2022/03/28 04:07:00;;;;;;;24.3;10.1;;;;;;;7.4;100.0;102240;;;;
2022/03/28 04:08:00;;;;;;;24.3;10.1;;;;;;;7.4;100.0;102240;;;;
2022/03/28 04:09:00;;;;;;;24.3;10.1;;;;;;;7.5;100.0;102230;;;;
2022/03/28 04:10:02;;;;;;;24.3;10.1;;;;;;;7.5;100.0;102230;;;;
2022/03/28 04:11:00;;;;;;;24.3;10.1;;;;;;;7.4;100.0;102230;;;;
2022/03/28 04:12:00;;;;;;;24.3;10.1;;;;;;;7.4;100.0;102230;;;;
2022/03/28 04:13:00;;;;;;;24.3;10.1;;;;;;;7.3;100.0;102230;;;;
2022/03/28 04:14:00;;;;;;;24.3;10.1;;;;;;;7.3;100.0;102230;;;;
2022/03/28 04:15:01;;;;;;;24.3;10.1;;;;;;;7.4;100.0;102230;;;;
2022/03/28 04:16:00;;;;;;;24.3;10.1;;;;;;;7.4;100.0;102230;;;;
2022/03/28 04:17:00;;;;;;;24.3;10.1;;;;;;;7.3;100.0;102230;;;;
2022/03/28 04:18:00;;;;;;;24.3;10.1;;;;;;;7.3;100.0;102230;;;;
2022/03/28 04:19:00;;;;;;;24.3;10.1;;;;;;;7.3;100.0;102220;;;;
2022/03/28 04:20:00;;;;;;;24.3;10.1;;;;;;;7.3;100.0;102220;;;;
2022/03/28 04:21:00;;;;;;;24.3;10.1;;;;;;;7.2;100.0;102220;;;;
2022/03/28 04:22:00;;;;;;;24.3;10.1;;;;;;;7.2;100.0;102220;;;;
2022/03/28 04:23:00;;;;;;;22.3;10.5;;;;;;;7.0;100.0;102210;;;;
2022/03/28 04:24:05;;;;;;;22.3;10.5;;;;;;;7.0;100.0;102210;;;;
2022/03/28 04:25:00;;;;;;;22.3;10.5;;;;;;;6.9;100.0;102210;;;;
2022/03/28 04:26:00;;;;;;;22.3;10.5;;;;;;;6.9;100.0;102210;;;;
2022/03/28 04:27:00;;;;;;;22.3;10.5;;;;;;;7.0;100.0;102220;;;;
2022/03/28 04:28:00;;;;;;;22.3;10.5;;;;;;;7.0;100.0;102220;;;;
2022/03/28 04:29:00;;;;;;;22.3;10.5;;;;;;;6.9;100.0;102210;;;;
2022/03/28 04:30:00;;;;;;;22.3;10.5;;;;;;;6.9;100.0;102210;;;;
2022/03/28 04:31:00;;;;;;;22.3;10.5;;;;;;;7.0;100.0;102210;;;;
2022/03/28 04:32:00;;;;;;;22.3;10.5;;;;;;;7.0;100.0;102210;;;;
2022/03/28 04:33:00;;;;;;;22.3;10.5;;;;;;;7.0;100.0;102210;;;;
2022/03/28 04:34:00;;;;;;;22.3;10.5;;;;;;;7.0;100.0;102210;;;;
2022/03/28 04:35:00;;;;;;;22.3;10.5;;;;;;;6.9;100.0;102210;;;;
2022/03/28 04:36:00;;;;;;;22.3;10.5;;;;;;;6.9;100.0;102210;;;;
2022/03/28 04:37:00;;;;;;;22.3;10.5;;;;;;;6.9;100.0;102210;;;;
2022/03/28 04:38:02;;;;;;;22.3;10.5;;;;;;;6.9;100.0;102210;;;;
2022/03/28 04:39:00;;;;;;;22.3;10.5;;;;;;;6.8;100.0;102220;;;;
2022/03/28 04:40:00;;;;;;;22.3;10.5;;;;;;;6.8;100.0;102220;;;;
2022/03/28 04:41:00;;;;;;;22.3;10.5;;;;;;;6.9;100.0;102220;;;;
2022/03/28 04:42:00;;;;;;;22.3;10.5;;;;;;;6.9;100.0;102220;;;;
2022/03/28 04:43:00;;;;;;;26.1;10.7;;;;;;;6.7;100.0;102210;;;;
2022/03/28 04:44:00;;;;;;;26.1;10.7;;;;;;;6.7;100.0;102210;;;;
2022/03/28 04:45:00;;;;;;;26.1;10.7;;;;;;;6.8;100.0;102220;;;;
2022/03/28 04:46:00;;;;;;;26.1;10.7;;;;;;;6.8;100.0;102220;;;;
2022/03/28 04:47:00;;;;;;;26.1;10.7;;;;;;;6.8;100.0;102210;;;;
2022/03/28 04:48:00;;;;;;;26.1;10.7;;;;;;;6.8;100.0;102210;;;;
2022/03/28 04:49:00;;;;;;;26.1;10.7;;;;;;;6.6;100.0;102210;;;;
2022/03/28 04:50:00;;;;;;;26.1;10.7;;;;;;;6.6;100.0;102210;;;;
2022/03/28 04:51:00;;;;;;;26.1;10.7;;;;;;;6.6;100.0;102210;;;;
2022/03/28 04:52:00;;;;;;;26.1;10.7;;;;;;;6.6;100.0;102210;;;;
2022/03/28 04:53:04;;;;;;;26.1;10.7;;;;;;;6.7;100.0;102220;;;;
2022/03/28 04:54:00;;;;;;;26.1;10.7;;;;;;;6.7;100.0;102220;;;;
2022/03/28 04:55:00;;;;;;;26.1;10.7;;;;;;;6.5;100.0;102210;;;;
2022/03/28 04:56:00;;;;;;;26.1;10.7;;;;;;;6.5;100.0;102210;;;;
2022/03/28 04:57:00;;;;;;;26.1;10.7;;;;;;;6.5;100.0;102220;;;;
2022/03/28 04:58:00;;;;;;;26.1;10.7;;;;;;;6.5;100.0;102220;;;;
2022/03/28 04:59:00;;;;;;;26.1;10.7;;;;;;;6.6;100.0;102220;;;;
2022/03/28 05:00:00;;;;;;;26.1;10.7;;;;;;;6.6;100.0;102220;;;;
2022/03/28 05:01:00;;;;;;;26.1;10.7;;;;;;;6.7;100.0;102220;;;;
2022/03/28 05:02:00;;;;;;;26.1;10.7;;;;;;;6.7;100.0;102220;;;;
2022/03/28 05:03:00;;;;;;;23.9;10.5;;;;;;;6.9;100.0;102220;;;;
2022/03/28 05:04:00;;;;;;;23.9;10.5;;;;;;;6.9;100.0;102220;;;;
2022/03/28 05:05:00;;;;;;;23.9;10.5;;;;;;;6.7;100.0;102220;;;;
2022/03/28 05:06:00;;;;;;;23.9;10.5;;;;;;;6.7;100.0;102220;;;;
2022/03/28 05:07:00;;;;;;;23.9;10.5;;;;;;;6.5;100.0;102220;;;;
2022/03/28 05:08:00;;;;;;;23.9;10.5;;;;;;;6.5;100.0;102220;;;;
2022/03/28 05:09:00;;;;;;;23.9;10.5;;;;;;;6.5;100.0;102220;;;;
2022/03/28 05:10:01;;;;;;;23.9;10.5;;;;;;;6.5;100.0;102220;;;;
2022/03/28 05:11:00;;;;;;;23.9;10.5;;;;;;;6.6;100.0;102220;;;;
2022/03/28 05:12:00;;;;;;;23.9;10.5;;;;;;;6.6;100.0;102220;;;;
2022/03/28 05:13:00;;;;;;;23.9;10.5;;;;;;;6.6;100.0;102220;;;;
2022/03/28 05:14:04;;;;;;;23.9;10.5;;;;;;;6.6;100.0;102220;;;;
2022/03/28 05:15:01;;;;;;;23.9;10.5;;;;;;;6.6;100.0;102230;;;;
2022/03/28 05:16:00;;;;;;;23.9;10.5;;;;;;;6.6;100.0;102230;;;;
2022/03/28 05:17:00;;;;;;;23.9;10.5;;;;;;;6.7;100.0;102220;;;;
2022/03/28 05:18:01;;;;;;;23.9;10.5;;;;;;;6.7;100.0;102220;;;;
2022/03/28 05:19:00;;;;;;;23.9;10.5;;;;;;;6.8;100.0;102220;;;;
2022/03/28 05:20:00;;;;;;;23.9;10.5;;;;;;;6.8;100.0;102220;;;;
2022/03/28 05:21:00;;;;;;;23.9;10.5;;;;;;;6.7;100.0;102220;;;;
2022/03/28 05:22:00;;;;;;;23.9;10.5;;;;;;;6.7;100.0;102220;;;;
2022/03/28 05:23:00;;;;;;;24.6;11.3;;;;;;;6.6;100.0;102210;;;;
2022/03/28 05:24:00;;;;;;;24.6;11.3;;;;;;;6.6;100.0;102210;;;;
2022/03/28 05:25:00;;;;;;;24.6;11.3;;;;;;;6.5;100.0;102210;;;;
2022/03/28 05:26:00;;;;;;;24.6;11.3;;;;;;;6.5;100.0;102210;;;;
2022/03/28 05:27:00;;;;;;;24.6;11.3;;;;;;;6.5;100.0;102210;;;;
2022/03/28 05:28:00;;;;;;;24.6;11.3;;;;;;;6.5;100.0;102210;;;;
2022/03/28 05:29:00;;;;;;;24.6;11.3;;;;;;;6.6;100.0;102210;;;;
2022/03/28 05:30:00;;;;;;;24.6;11.3;;;;;;;6.6;100.0;102210;;;;
2022/03/28 05:31:00;;;;;;;24.6;11.3;;;;;;;6.7;100.0;102210;;;;
2022/03/28 05:32:01;;;;;;;24.6;11.3;;;;;;;6.7;100.0;102210;;;;
2022/03/28 05:33:00;;;;;;;24.6;11.3;;;;;;;6.6;100.0;102200;;;;
2022/03/28 05:34:00;;;;;;;24.6;11.3;;;;;;;6.6;100.0;102200;;;;
2022/03/28 05:35:00;;;;;;;24.6;11.3;;;;;;;6.5;100.0;102200;;;;
2022/03/28 05:36:00;;;;;;;24.6;11.3;;;;;;;6.5;100.0;102200;;;;
2022/03/28 05:37:01;;;;;;;24.6;11.3;;;;;;;6.3;100.0;102200;;;;
2022/03/28 05:38:00;;;;;;;24.6;11.3;;;;;;;6.3;100.0;102200;;;;
2022/03/28 05:39:00;;;;;;;24.6;11.3;;;;;;;6.4;100.0;102200;;;;
2022/03/28 05:40:00;;;;;;;24.6;11.3;;;;;;;6.4;100.0;102200;;;;
2022/03/28 05:41:00;;;;;;;24.6;11.3;;;;;;;6.4;100.0;102200;;;;
2022/03/28 05:42:00;;;;;;;21.5;10.9;;;;;;;6.4;100.0;102200;;;;
2022/03/28 05:43:00;;;;;;;21.5;10.9;;;;;;;6.5;100.0;102210;;;;
2022/03/28 05:44:00;;;;;;;21.5;10.9;;;;;;;6.5;100.0;102210;;;;
2022/03/28 05:45:00;;;;;;;21.5;10.9;;;;;;;6.5;100.0;102210;;;;
2022/03/28 05:46:00;;;;;;;21.5;10.9;;;;;;;6.5;100.0;102210;;;;
2022/03/28 05:47:00;;;;;;;21.5;10.9;;;;;;;6.6;100.0;102200;;;;
2022/03/28 05:48:00;;;;;;;21.5;10.9;;;;;;;6.6;100.0;102200;;;;
2022/03/28 05:49:00;;;;;;;21.5;10.9;;;;;;;6.4;100.0;102210;;;;
2022/03/28 05:50:00;;;;;;;21.5;10.9;;;;;;;6.4;100.0;102210;;;;
2022/03/28 05:51:01;;;;;;;21.5;10.9;;;;;;;6.4;100.0;102210;;;;
2022/03/28 05:52:00;;;;;;;21.5;10.9;;;;;;;6.4;100.0;102210;;;;
2022/03/28 05:53:00;;;;;;;21.5;10.9;;;;;;;6.4;100.0;102210;;;;
2022/03/28 05:54:00;;;;;;;21.5;10.9;;;;;;;6.4;100.0;102210;;;;
2022/03/28 05:55:00;;;;;;;21.5;10.9;;;;;;;6.5;100.0;102200;;;;
2022/03/28 05:56:03;;;;;;;21.5;10.9;;;;;;;6.5;100.0;102200;;;;
2022/03/28 05:57:00;;;;;;;21.5;10.9;;;;;;;6.5;100.0;102200;;;;
2022/03/28 05:58:00;;;;;;;21.5;10.9;;;;;;;6.5;100.0;102200;;;;
2022/03/28 05:59:02;;;;;;;21.5;10.9;;;;;;;6.4;100.0;102200;;;;
2022/03/28 06:00:00;;;;;;;21.5;10.9;;;;;;;6.4;100.0;102200;;;;
2022/03/28 06:01:00;;;;;;;21.5;10.9;;;;;;;6.5;100.0;102200;;;;
2022/03/28 06:02:00;;;;;;;22.4;11.4;;;;;;;6.5;100.0;102200;;;;
2022/03/28 06:03:10;;;;;;;22.4;11.4;;;;;;;6.6;100.0;102200;;;;
2022/03/28 06:04:00;;;;;;;22.4;11.4;;;;;;;6.6;100.0;102200;;;;
2022/03/28 06:05:00;;;;;;;22.4;11.4;;;;;;;6.7;100.0;102200;;;;
2022/03/28 06:06:02;;;;;;;22.4;11.4;;;;;;;6.7;100.0;102200;;;;
2022/03/28 06:07:00;;;;;;;22.4;11.4;;;;;;;6.6;100.0;102200;;;;
2022/03/28 06:08:00;;;;;;;22.4;11.4;;;;;;;6.6;100.0;102200;;;;
2022/03/28 06:09:00;;;;;;;22.4;11.4;;;;;;;6.6;100.0;102200;;;;
2022/03/28 06:10:00;;;;;;;22.4;11.4;;;;;;;6.6;100.0;102200;;;;
2022/03/28 06:11:03;;;;;;;22.4;11.4;;;;;;;6.7;100.0;102210;;;;
2022/03/28 06:12:00;;;;;;;22.4;11.4;;;;;;;6.7;100.0;102210;;;;
2022/03/28 06:13:00;;;;;;;22.4;11.4;;;;;;;6.8;100.0;102200;;;;
2022/03/28 06:14:01;;;;;;;22.4;11.4;;;;;;;6.8;100.0;102200;;;;
2022/03/28 06:15:01;;;;;;;22.4;11.4;;;;;;;6.8;100.0;102200;;;;
2022/03/28 06:16:00;;;;;;;22.4;11.4;;;;;;;6.8;100.0;102200;;;;
2022/03/28 06:17:00;;;;;;;22.4;11.4;;;;;;;6.6;100.0;102190;;;;